createdAt,value
2022-08-10T00:01:34.430Z,18.07
2022-08-10T00:04:02.466Z,18.02
2022-08-10T00:06:29.978Z,18.02
2022-08-10T00:08:57.414Z,17.97
2022-08-10T00:11:26.413Z,17.88
2022-08-10T00:13:53.717Z,17.85
2022-08-10T00:16:20.749Z,17.91
2022-08-10T00:18:47.855Z,17.76
2022-08-10T00:21:15.429Z,17.79
2022-08-10T00:23:42.466Z,17.74
2022-08-10T00:26:09.580Z,17.76
2022-08-10T00:28:39.006Z,17.78
2022-08-10T00:31:06.606Z,17.70
2022-08-10T00:33:33.687Z,17.63
2022-08-10T00:36:00.766Z,17.71
2022-08-10T00:38:27.714Z,17.67
2022-08-10T00:40:54.675Z,17.71
2022-08-10T00:43:23.449Z,17.83
2022-08-10T00:45:59.331Z,17.68
2022-08-10T00:48:31.601Z,17.62
2022-08-10T00:51:01.897Z,17.70
2022-08-10T00:53:29.645Z,17.48
2022-08-10T00:56:34.897Z,17.49
2022-08-10T00:58:45.032Z,17.52
2022-08-10T01:02:10.190Z,17.48
2022-08-10T01:04:36.777Z,17.56
2022-08-10T01:07:14.450Z,17.41
2022-08-10T01:09:59.801Z,17.48
2022-08-10T01:12:49.737Z,17.36
2022-08-10T01:15:31.892Z,17.40
2022-08-10T01:18:14.869Z,17.31
2022-08-10T01:21:20.799Z,17.32
2022-08-10T01:24:02.480Z,17.30
2022-08-10T01:27:07.194Z,17.20
2022-08-10T01:29:39.447Z,17.34
2022-08-10T01:32:10.454Z,17.09
2022-08-10T01:34:52.025Z,17.09
2022-08-10T01:37:26.387Z,17.19
2022-08-10T01:39:58.848Z,17.15
2022-08-10T01:42:29.857Z,17.13
2022-08-10T01:45:02.344Z,17.13
2022-08-10T01:47:57.922Z,17.05
2022-08-10T01:50:59.471Z,17.11
2022-08-10T01:53:56.242Z,17.19
2022-08-10T01:56:28.468Z,16.92
2022-08-10T01:59:04.305Z,16.98
2022-08-10T02:01:39.411Z,17.00
2022-08-10T02:04:12.296Z,16.86
2022-08-10T02:06:46.733Z,16.97
2022-08-10T02:09:30.414Z,16.79
2022-08-10T02:12:08.607Z,16.90
2022-08-10T02:14:44.978Z,16.84
2022-08-10T02:17:57.528Z,16.79
2022-08-10T02:20:14.609Z,16.77
2022-08-10T02:22:45.555Z,16.77
2022-08-10T02:25:40.902Z,16.72
2022-08-10T02:28:05.114Z,16.50
2022-08-10T02:30:34.092Z,16.65
2022-08-10T02:33:02.114Z,16.50
2022-08-10T02:35:31.506Z,16.45
2022-08-10T02:38:59.863Z,16.43
2022-08-10T02:45:13.777Z,16.47
2022-08-10T02:45:19.342Z,16.46
2022-08-10T02:48:00.253Z,16.41
2022-08-10T02:50:32.429Z,16.46
2022-08-10T02:53:06.900Z,16.44
2022-08-10T02:56:05.204Z,16.45
2022-08-10T02:58:39.621Z,16.40
2022-08-10T03:01:14.296Z,16.51
2022-08-10T03:03:53.337Z,16.45
2022-08-10T03:06:25.618Z,16.16
2022-08-10T03:08:55.122Z,16.24
2022-08-10T03:12:16.719Z,16.32
2022-08-10T03:14:17.092Z,16.37
2022-08-10T03:16:46.368Z,16.26
2022-08-10T03:20:34.223Z,16.28
2022-08-10T03:22:03.862Z,16.38
2022-08-10T03:24:33.015Z,16.39
2022-08-10T03:27:01.716Z,16.13
2022-08-10T03:29:31.347Z,16.27
2022-08-10T03:32:20.158Z,16.22
2022-08-10T03:34:47.975Z,16.35
2022-08-10T03:37:15.017Z,16.55
2022-08-10T03:39:42.412Z,16.37
2022-08-10T03:42:15.509Z,16.59
2022-08-10T03:44:47.369Z,16.60
2022-08-10T03:47:19.482Z,16.57
2022-08-10T03:49:49.901Z,16.68
2022-08-10T03:52:19.309Z,16.80
2022-08-10T03:54:46.874Z,16.89
2022-08-10T03:57:14.478Z,17.21
2022-08-10T03:59:41.696Z,18.64
2022-08-10T04:02:46.138Z,19.74
2022-08-10T04:04:56.450Z,20.78
2022-08-10T04:07:23.788Z,21.79
2022-08-10T04:09:55.960Z,22.86
2022-08-10T04:12:24.593Z,23.58
2022-08-10T04:14:53.146Z,23.66
2022-08-10T04:18:03.362Z,25.12
2022-08-10T04:20:53.021Z,26.09
2022-08-10T04:23:25.365Z,26.48
2022-08-10T04:25:53.331Z,26.89
2022-08-10T04:28:20.803Z,28.08
2022-08-10T04:30:50.359Z,28.44
2022-08-10T04:33:21.439Z,29.35
2022-08-10T04:35:49.567Z,30.82
2022-08-10T04:38:18.545Z,31.72
2022-08-10T04:40:46.960Z,32.83
2022-08-10T04:43:14.334Z,33.24
2022-08-10T04:45:49.042Z,33.60
2022-08-10T04:48:42.522Z,33.47
2022-08-10T04:51:18.945Z,35.34
2022-08-10T04:54:03.792Z,34.18
2022-08-10T04:56:37.119Z,34.70
2022-08-10T04:59:06.064Z,34.56
2022-08-10T05:02:22.567Z,36.18
2022-08-10T05:04:36.776Z,36.95
2022-08-10T05:07:11.307Z,36.08
2022-08-10T05:10:04.878Z,37.50
2022-08-10T05:12:31.602Z,38.43
2022-08-10T05:14:58.669Z,39.04
2022-08-10T05:17:26.410Z,38.59
2022-08-10T05:20:03.646Z,38.19
2022-08-10T05:22:38.368Z,39.26
2022-08-10T05:25:08.899Z,40.05
2022-08-10T05:27:36.058Z,40.36
2022-08-10T05:30:04.337Z,39.03
2022-08-10T05:32:57.717Z,39.32
2022-08-10T05:35:23.774Z,39.11
2022-08-10T05:38:09.626Z,39.35
2022-08-10T05:40:46.922Z,38.93
2022-08-10T05:43:17.920Z,39.78
2022-08-10T05:46:18.018Z,39.95
2022-08-10T05:48:54.507Z,40.41
2022-08-10T05:51:20.710Z,41.08
2022-08-10T05:54:02.724Z,41.04
2022-08-10T05:56:56.982Z,41.37
2022-08-10T06:00:29.395Z,40.91
2022-08-10T06:02:41.460Z,41.38
2022-08-10T06:05:11.626Z,42.65
2022-08-10T06:07:49.269Z,43.14
2022-08-10T06:10:30.958Z,42.78
2022-08-10T06:13:30.138Z,42.64
2022-08-10T06:16:09.095Z,43.66
2022-08-10T06:18:39.769Z,43.72
2022-08-10T06:21:09.592Z,44.15
2022-08-10T06:23:39.021Z,43.41
2022-08-10T06:26:11.935Z,44.71
2022-08-10T06:28:52.926Z,44.03
2022-08-10T06:31:48.365Z,43.59
2022-08-10T06:34:25.212Z,43.59
2022-08-10T06:36:54.414Z,43.33
2022-08-10T06:39:38.298Z,42.24
2022-08-10T06:42:17.982Z,43.26
2022-08-10T06:45:23.482Z,43.63
2022-08-10T06:48:04.294Z,43.75
2022-08-10T06:50:55.974Z,44.66
2022-08-10T06:53:52.975Z,44.43
2022-08-10T06:56:38.230Z,43.73
2022-08-10T06:59:34.254Z,44.74
2022-08-10T07:02:17.067Z,43.82
2022-08-10T07:04:54.961Z,44.71
2022-08-10T07:07:27.101Z,44.30
2022-08-10T07:09:57.341Z,43.84
2022-08-10T07:12:25.902Z,43.05
2022-08-10T07:14:55.706Z,43.37
2022-08-10T07:17:26.930Z,42.47
2022-08-10T07:19:57.863Z,44.12
2022-08-10T07:23:51.930Z,42.81
2022-08-10T07:25:25.345Z,42.84
2022-08-10T07:28:00.815Z,43.07
2022-08-10T07:30:33.440Z,41.72
2022-08-10T07:33:02.640Z,41.76
2022-08-10T07:35:41.920Z,39.36
2022-08-10T07:38:38.686Z,38.82
2022-08-10T07:41:07.948Z,38.45
2022-08-10T07:43:40.515Z,36.91
2022-08-10T07:46:14.362Z,36.65
2022-08-10T07:48:49.160Z,37.30
2022-08-10T07:51:19.881Z,35.97
2022-08-10T07:53:52.777Z,35.76
2022-08-10T07:56:47.467Z,34.86
2022-08-10T07:59:18.885Z,34.06
2022-08-10T08:01:51.614Z,34.67
2022-08-10T08:04:22.600Z,34.21
2022-08-10T08:06:52.007Z,34.02
2022-08-10T08:09:21.452Z,32.41
2022-08-10T08:11:50.166Z,32.53
2022-08-10T08:14:19.361Z,31.38
2022-08-10T08:16:51.649Z,30.90
2022-08-10T08:19:28.509Z,30.74
2022-08-10T08:24:08.086Z,30.66
2022-08-10T08:24:57.713Z,30.14
2022-08-10T08:27:27.322Z,29.76
2022-08-10T08:29:54.970Z,30.13
2022-08-10T08:32:27.480Z,29.75
2022-08-10T08:35:24.397Z,30.76
2022-08-10T08:38:32.005Z,30.89
2022-08-10T08:40:47.989Z,31.68
2022-08-10T08:43:47.661Z,31.28
2022-08-10T08:46:39.174Z,31.89
2022-08-10T08:50:04.560Z,32.72
2022-08-10T08:52:46.874Z,33.04
2022-08-10T08:55:56.082Z,31.55
2022-08-10T08:58:29.429Z,30.83
2022-08-10T09:01:24.163Z,31.14
2022-08-10T09:04:40.668Z,31.29
2022-08-10T09:07:39.259Z,31.68
2022-08-10T09:11:19.087Z,33.04
2022-08-10T09:14:00.400Z,32.37
2022-08-10T09:16:53.749Z,32.93
2022-08-10T09:19:47.804Z,33.20
2022-08-10T09:22:43.306Z,33.23
2022-08-10T09:25:37.076Z,33.11
2022-08-10T09:28:06.858Z,32.97
2022-08-10T09:36:22.618Z,33.06
2022-08-10T09:37:39.871Z,32.63
2022-08-10T09:40:57.940Z,32.10
2022-08-10T09:43:26.257Z,32.69
2022-08-10T09:46:11.051Z,32.76
2022-08-10T09:48:51.416Z,31.99
2022-08-10T09:51:54.541Z,31.86
2022-08-10T09:54:38.335Z,31.48
2022-08-10T09:57:57.084Z,31.56
2022-08-10T10:00:35.479Z,31.42
2022-08-10T10:03:27.673Z,31.19
2022-08-10T10:06:21.742Z,31.14
2022-08-10T10:09:12.128Z,31.65
2022-08-10T10:12:14.580Z,32.21
2022-08-10T10:15:24.736Z,31.91
2022-08-10T10:18:30.256Z,31.94
2022-08-10T10:21:54.039Z,31.45
2022-08-10T10:24:41.930Z,30.91
2022-08-10T10:27:36.732Z,30.83
2022-08-10T10:30:11.346Z,30.83
2022-08-10T10:32:59.466Z,30.53
2022-08-10T10:35:45.633Z,30.91
2022-08-10T10:38:15.611Z,30.61
2022-08-10T10:41:20.186Z,30.37
2022-08-10T10:44:42.449Z,30.36
2022-08-10T10:47:46.433Z,30.09
2022-08-10T10:50:31.329Z,30.04
2022-08-10T10:53:10.200Z,29.71
2022-08-10T10:56:13.569Z,30.05
2022-08-10T10:58:52.198Z,29.85
2022-08-10T11:01:21.985Z,30.07
2022-08-10T11:03:58.528Z,29.93
2022-08-10T11:06:50.986Z,30.10
2022-08-10T11:10:08.685Z,30.24
2022-08-10T11:12:55.302Z,30.14
2022-08-10T11:15:59.642Z,29.98
2022-08-10T11:18:33.905Z,29.96
2022-08-10T11:21:26.857Z,29.83
2022-08-10T11:24:47.893Z,29.82
2022-08-10T11:27:28.937Z,29.97
2022-08-10T11:30:09.667Z,29.88
2022-08-10T11:33:07.067Z,29.57
2022-08-10T11:35:50.320Z,29.27
2022-08-10T11:39:04.085Z,28.93
2022-08-10T11:42:18.550Z,28.68
2022-08-10T11:45:12.005Z,28.70
2022-08-10T11:47:54.798Z,28.66
2022-08-10T11:50:35.051Z,28.57
2022-08-10T11:53:23.036Z,28.91
2022-08-10T11:55:57.691Z,28.94
2022-08-10T11:58:58.487Z,29.06
2022-08-10T12:01:32.859Z,29.08
2022-08-10T12:04:11.958Z,28.91
2022-08-10T12:06:55.357Z,28.66
2022-08-10T12:10:10.242Z,28.97
2022-08-10T12:12:13.361Z,29.22
2022-08-10T12:15:04.052Z,29.10
2022-08-10T12:17:53.759Z,28.50
2022-08-10T12:20:31.744Z,28.99
2022-08-10T12:23:22.365Z,28.82
2022-08-10T12:25:58.709Z,28.74
2022-08-10T12:28:50.082Z,28.80
2022-08-10T12:31:29.826Z,28.71
2022-08-10T12:34:32.123Z,28.47
2022-08-10T12:37:27.484Z,28.22
2022-08-10T12:40:35.131Z,27.60
2022-08-10T12:44:06.989Z,27.82
2022-08-10T12:46:41.988Z,27.61
2022-08-10T12:50:20.059Z,27.72
2022-08-10T12:52:54.885Z,27.62
2022-08-10T12:55:23.434Z,27.54
2022-08-10T12:57:55.390Z,27.33
2022-08-10T13:00:33.415Z,27.27
2022-08-10T13:03:03.409Z,27.42
2022-08-10T13:06:02.550Z,27.50
2022-08-10T13:08:41.883Z,27.34
2022-08-10T13:12:35.447Z,27.70
2022-08-10T13:14:15.151Z,27.82
2022-08-10T13:16:44.320Z,27.72
2022-08-10T13:19:14.622Z,27.57
2022-08-10T13:21:42.980Z,27.68
2022-08-10T13:24:26.111Z,27.82
2022-08-10T13:27:25.107Z,27.91
2022-08-10T13:30:07.016Z,27.99
2022-08-10T13:32:39.483Z,28.13
2022-08-10T13:35:14.279Z,27.69
2022-08-10T13:37:47.029Z,27.50
2022-08-10T13:40:19.536Z,27.60
2022-08-10T13:42:49.906Z,27.85
2022-08-10T13:45:21.956Z,27.96
2022-08-10T13:47:54.147Z,28.09
2022-08-10T13:50:33.099Z,28.35
2022-08-10T13:53:11.627Z,28.12
2022-08-10T13:55:56.540Z,27.80
2022-08-10T13:58:42.229Z,27.75
2022-08-10T14:01:15.829Z,27.55
2022-08-10T14:03:46.484Z,27.44
2022-08-10T14:06:16.390Z,27.40
2022-08-10T14:09:02.076Z,27.40
2022-08-10T14:11:30.483Z,27.75
2022-08-10T14:14:13.738Z,27.81
2022-08-10T14:16:45.887Z,27.64
2022-08-10T14:19:27.780Z,27.58
2022-08-10T14:21:56.760Z,27.36
2022-08-10T14:24:31.426Z,27.34
2022-08-10T14:27:08.861Z,27.22
2022-08-10T14:29:49.430Z,27.34
2022-08-10T14:32:21.610Z,27.17
2022-08-10T14:36:15.520Z,26.89
2022-08-10T14:37:50.087Z,26.93
2022-08-10T14:40:22.058Z,27.00
2022-08-10T14:43:04.572Z,26.92
2022-08-10T14:45:37.205Z,26.82
2022-08-10T14:48:08.732Z,26.66
2022-08-10T14:50:54.870Z,26.47
2022-08-10T14:53:27.960Z,26.65
2022-08-10T14:56:10.909Z,26.77
2022-08-10T14:58:58.926Z,27.00
2022-08-10T15:02:00.159Z,27.23
2022-08-10T15:04:26.528Z,27.19
2022-08-10T15:07:13.758Z,26.78
2022-08-10T15:10:01.016Z,26.69
2022-08-10T15:12:38.901Z,26.32
2022-08-10T15:15:16.336Z,26.10
2022-08-10T15:17:52.901Z,26.13
2022-08-10T15:20:24.701Z,25.93
2022-08-10T15:23:31.094Z,25.92
2022-08-10T15:26:11.279Z,26.05
2022-08-10T15:29:24.197Z,25.90
2022-08-10T15:31:35.480Z,25.71
2022-08-10T15:34:28.712Z,25.72
2022-08-10T15:37:40.484Z,25.72
2022-08-10T15:40:24.362Z,25.60
2022-08-10T15:43:20.664Z,25.92
2022-08-10T15:46:10.678Z,25.87
2022-08-10T15:48:48.072Z,25.60
2022-08-10T15:51:54.210Z,25.66
2022-08-10T15:54:38.192Z,25.73
2022-08-10T15:57:23.760Z,25.65
2022-08-10T15:59:58.576Z,25.59
2022-08-10T16:06:43.829Z,25.45
2022-08-10T16:10:23.313Z,25.49
2022-08-10T16:12:36.482Z,25.47
2022-08-10T16:15:14.654Z,25.25
2022-08-10T16:18:00.006Z,25.31
2022-08-10T16:20:53.311Z,25.13
2022-08-10T16:23:34.341Z,25.40
2022-08-10T16:26:14.471Z,25.36
2022-08-10T16:28:50.643Z,24.96
2022-08-10T16:31:23.136Z,25.09
2022-08-10T16:33:58.402Z,25.04
2022-08-10T16:36:41.599Z,25.05
2022-08-10T16:39:18.158Z,25.25
2022-08-10T16:42:08.155Z,25.05
2022-08-10T16:44:50.087Z,24.73
2022-08-10T16:47:17.731Z,24.90
2022-08-10T16:49:47.836Z,24.78
2022-08-10T16:52:17.115Z,24.74
2022-08-10T16:54:50.145Z,24.76
2022-08-10T16:57:19.628Z,24.62
2022-08-10T16:59:48.127Z,24.57
2022-08-10T17:02:19.440Z,24.81
2022-08-10T17:04:48.572Z,24.81
2022-08-10T17:07:18.801Z,24.76
2022-08-10T17:09:52.900Z,24.66
2022-08-10T17:12:27.314Z,24.80
2022-08-10T17:15:09.093Z,24.74
2022-08-10T17:17:47.651Z,24.61
2022-08-10T17:20:30.904Z,24.59
2022-08-10T17:23:04.866Z,24.54
2022-08-10T17:25:48.600Z,24.50
2022-08-10T17:28:34.957Z,24.48
2022-08-10T17:31:49.491Z,24.57
2022-08-10T17:34:18.172Z,24.37
2022-08-10T17:36:59.410Z,24.27
2022-08-10T17:39:41.268Z,24.21
2022-08-10T17:42:09.233Z,24.06
2022-08-10T17:44:40.890Z,24.03
2022-08-10T17:47:11.669Z,23.96
2022-08-10T17:49:42.233Z,23.99
2022-08-10T17:52:13.978Z,23.90
2022-08-10T17:54:44.483Z,23.92
2022-08-10T17:57:21.393Z,23.78
2022-08-10T17:59:52.888Z,23.74
2022-08-10T18:02:27.551Z,23.70
2022-08-10T18:04:58.831Z,23.63
2022-08-10T18:07:40.964Z,23.69
2022-08-10T18:10:11.495Z,23.70
2022-08-10T18:12:54.573Z,23.66
2022-08-10T18:15:26.912Z,23.55
2022-08-10T18:18:00.735Z,23.52
2022-08-10T18:20:37.227Z,23.45
2022-08-10T18:23:07.434Z,23.25
2022-08-10T18:25:39.530Z,23.21
2022-08-10T18:28:14.962Z,23.24
2022-08-10T18:30:53.538Z,23.17
2022-08-10T18:33:31.274Z,23.10
2022-08-10T18:36:03.639Z,23.11
2022-08-10T18:38:33.569Z,23.03
2022-08-10T18:41:07.218Z,23.12
2022-08-10T18:44:10.414Z,23.06
2022-08-10T18:46:46.001Z,22.95
2022-08-10T18:49:39.090Z,22.82
2022-08-10T18:52:14.697Z,22.87
2022-08-10T18:54:49.908Z,22.80
2022-08-10T18:57:50.509Z,22.66
2022-08-10T19:00:22.799Z,22.72
2022-08-10T19:03:31.592Z,22.64
2022-08-10T19:06:44.270Z,22.41
2022-08-10T19:09:47.142Z,22.43
2022-08-10T19:12:30.944Z,22.52
2022-08-10T19:15:18.705Z,22.41
2022-08-10T19:18:17.213Z,22.30
2022-08-10T19:20:49.856Z,22.19
2022-08-10T19:23:29.040Z,22.07
2022-08-10T19:26:44.838Z,21.96
2022-08-10T19:30:08.969Z,22.10
2022-08-10T19:32:54.964Z,22.02
2022-08-10T19:36:03.052Z,21.88
2022-08-10T19:39:00.841Z,22.01
2022-08-10T19:41:44.333Z,21.84
2022-08-10T19:44:58.455Z,21.98
2022-08-10T19:47:53.321Z,21.89
2022-08-10T19:50:37.600Z,21.60
2022-08-10T19:53:10.001Z,21.53
2022-08-10T19:55:50.274Z,21.61
2022-08-10T19:58:36.411Z,21.41
2022-08-10T20:01:06.977Z,21.54
2022-08-10T20:03:59.505Z,21.45
2022-08-10T20:06:50.163Z,21.30
2022-08-10T20:09:34.728Z,21.00
2022-08-10T20:12:08.338Z,21.06
2022-08-10T20:14:56.103Z,21.11
2022-08-10T20:17:51.732Z,21.02
2022-08-10T20:20:34.576Z,21.10
2022-08-10T20:23:30.370Z,20.87
2022-08-10T20:26:15.295Z,20.78
2022-08-10T20:29:57.291Z,20.86
2022-08-10T20:32:24.578Z,20.88
2022-08-10T20:35:04.617Z,20.95
2022-08-10T20:38:03.565Z,20.97
2022-08-10T20:41:14.447Z,20.89
2022-08-10T20:44:04.355Z,20.94
2022-08-10T20:47:01.540Z,20.85
2022-08-10T20:50:03.115Z,20.84
2022-08-10T20:52:33.738Z,20.82
2022-08-10T20:55:09.908Z,20.72
2022-08-10T20:58:04.335Z,20.75
2022-08-10T21:01:06.182Z,20.69
2022-08-10T21:04:27.431Z,20.62
2022-08-10T21:07:22.131Z,20.63
2022-08-10T21:10:06.428Z,20.58
2022-08-10T21:13:10.477Z,20.53
2022-08-10T21:15:55.519Z,20.53
2022-08-10T21:18:45.011Z,20.45
2022-08-10T21:21:59.704Z,20.41
2022-08-10T21:24:40.964Z,20.32
2022-08-10T21:27:47.122Z,20.22
2022-08-10T21:30:28.940Z,20.25
2022-08-10T21:33:37.956Z,20.10
2022-08-10T21:36:31.991Z,20.16
2022-08-10T21:39:43.719Z,19.90
2022-08-10T21:43:03.458Z,20.01
2022-08-10T21:46:22.987Z,19.84
2022-08-10T21:49:36.955Z,19.77
2022-08-10T21:52:33.305Z,19.75
2022-08-10T21:55:57.268Z,19.80
2022-08-10T21:59:20.298Z,19.69
2022-08-10T22:02:28.265Z,19.60
2022-08-10T22:05:22.026Z,19.58
2022-08-10T22:08:14.893Z,19.31
2022-08-10T22:11:08.717Z,19.27
2022-08-10T22:14:06.284Z,19.34
2022-08-10T22:17:59.937Z,19.26
2022-08-10T22:20:53.554Z,19.27
2022-08-10T22:24:19.906Z,19.36
2022-08-10T22:27:46.896Z,19.39
2022-08-10T22:30:23.441Z,19.20
2022-08-10T22:33:48.188Z,19.16
2022-08-10T22:37:02.877Z,19.12
2022-08-10T22:40:13.429Z,19.11
2022-08-10T22:43:10.924Z,19.25
2022-08-10T22:46:07.263Z,19.26
2022-08-10T22:49:00.693Z,19.16
2022-08-10T22:51:42.587Z,19.21
2022-08-10T22:54:41.494Z,19.04
2022-08-10T22:57:34.032Z,19.08
2022-08-10T23:00:28.687Z,19.12
2022-08-10T23:03:21.920Z,19.15
2022-08-10T23:06:07.412Z,18.99
2022-08-10T23:08:52.075Z,19.06
2022-08-10T23:11:35.731Z,19.07
2022-08-10T23:14:12.511Z,19.00
2022-08-10T23:17:09.342Z,18.98
2022-08-10T23:19:46.105Z,18.97
2022-08-10T23:22:16.796Z,18.97
2022-08-10T23:24:52.884Z,18.86
2022-08-10T23:27:38.849Z,18.84
2022-08-10T23:30:18.027Z,18.80
2022-08-10T23:32:52.066Z,18.85
2022-08-10T23:36:31.268Z,18.71
2022-08-10T23:38:16.697Z,18.66
2022-08-10T23:40:47.261Z,18.51
2022-08-10T23:43:46.641Z,18.29
2022-08-10T23:46:17.734Z,18.34
2022-08-10T23:48:47.033Z,18.41
2022-08-10T23:51:17.469Z,18.38
2022-08-10T23:53:47.786Z,18.39
2022-08-10T23:56:19.343Z,18.34
2022-08-10T23:58:49.864Z,18.33
